createdAt,value
2022-10-27T00:00:51.454Z,42.73
2022-10-27T00:03:19.087Z,49.43
2022-10-27T00:05:47.641Z,47.60
2022-10-27T00:08:16.740Z,48.97
2022-10-27T00:10:45.138Z,44.37
2022-10-27T00:13:13.843Z,44.27
2022-10-27T00:15:41.785Z,46.30
2022-10-27T00:18:10.911Z,41.00
2022-10-27T00:20:38.592Z,38.83
2022-10-27T00:23:05.651Z,44.67
2022-10-27T00:25:32.544Z,38.60
2022-10-27T00:27:59.372Z,41.27
2022-10-27T00:30:26.315Z,40.83
2022-10-27T00:32:54.349Z,34.83
2022-10-27T00:35:21.838Z,33.27
2022-10-27T00:37:49.178Z,35.37
2022-10-27T00:40:16.390Z,30.43
2022-10-27T00:42:43.178Z,36.10
2022-10-27T00:45:10.163Z,34.80
2022-10-27T00:47:38.350Z,37.53
2022-10-27T00:50:12.594Z,33.27
2022-10-27T00:52:42.521Z,37.60
2022-10-27T00:55:22.554Z,36.13
2022-10-27T00:57:53.438Z,37.03
2022-10-27T01:00:20.843Z,30.03
2022-10-27T01:02:48.760Z,28.00
2022-10-27T01:05:20.761Z,34.53
2022-10-27T01:07:49.873Z,31.57
2022-10-27T01:10:17.216Z,28.60
2022-10-27T01:12:45.236Z,35.93
2022-10-27T01:15:12.898Z,28.00
2022-10-27T01:17:54.726Z,25.97
2022-10-27T01:20:24.304Z,28.13
2022-10-27T01:22:54.003Z,26.27
2022-10-27T01:25:25.451Z,29.43
2022-10-27T01:28:27.647Z,25.67
2022-10-27T01:31:24.245Z,30.70
2022-10-27T01:34:06.209Z,28.73
2022-10-27T01:36:43.390Z,27.47
2022-10-27T01:39:19.721Z,33.40
2022-10-27T01:42:09.115Z,34.40
2022-10-27T01:44:42.011Z,43.50
2022-10-27T01:47:10.535Z,37.53
2022-10-27T01:49:40.034Z,34.43
2022-10-27T01:52:27.700Z,35.37
2022-10-27T01:54:57.877Z,35.10
2022-10-27T01:57:43.284Z,33.50
2022-10-27T02:00:10.586Z,31.33
2022-10-27T02:02:37.371Z,31.97
2022-10-27T02:05:17.454Z,28.03
2022-10-27T02:08:13.236Z,32.47
2022-10-27T02:10:53.922Z,32.43
2022-10-27T02:13:21.278Z,27.93
2022-10-27T02:15:57.421Z,34.13
2022-10-27T02:18:34.198Z,32.63
2022-10-27T02:23:36.162Z,28.43
2022-10-27T02:26:27.549Z,31.53
2022-10-27T02:29:04.983Z,32.07
2022-10-27T02:31:35.953Z,31.97
2022-10-27T02:34:04.370Z,33.50
2022-10-27T02:36:31.573Z,30.07
2022-10-27T02:38:59.685Z,26.23
2022-10-27T02:41:26.769Z,37.63
2022-10-27T02:43:53.779Z,28.93
2022-10-27T02:46:20.750Z,28.03
2022-10-27T02:48:47.839Z,26.77
2022-10-27T02:51:14.662Z,27.63
2022-10-27T02:53:41.517Z,29.77
2022-10-27T02:56:08.955Z,29.10
2022-10-27T02:58:36.458Z,29.97
2022-10-27T03:01:03.671Z,27.67
2022-10-27T03:03:30.585Z,26.83
2022-10-27T03:05:57.471Z,25.63
2022-10-27T03:08:25.575Z,30.10
2022-10-27T03:10:52.362Z,31.93
2022-10-27T03:13:19.248Z,33.03
2022-10-27T03:15:46.302Z,27.40
2022-10-27T03:18:13.672Z,59.70
2022-10-27T03:20:40.725Z,40.70
2022-10-27T03:23:07.573Z,32.40
2022-10-27T03:25:37.043Z,31.80
2022-10-27T03:28:04.027Z,31.10
2022-10-27T03:30:30.807Z,28.50
2022-10-27T03:32:57.731Z,28.10
2022-10-27T03:35:24.487Z,27.73
2022-10-27T03:37:59.452Z,33.60
2022-10-27T03:40:28.144Z,24.33
2022-10-27T03:42:58.633Z,28.17
2022-10-27T03:45:26.716Z,26.83
2022-10-27T03:48:05.380Z,27.20
2022-10-27T03:50:33.283Z,32.47
2022-10-27T03:53:00.656Z,26.17
2022-10-27T03:55:27.504Z,24.90
2022-10-27T03:57:54.432Z,28.77
2022-10-27T04:00:21.472Z,24.97
2022-10-27T04:02:48.691Z,30.70
2022-10-27T04:05:15.674Z,29.20
2022-10-27T04:07:46.401Z,34.80
2022-10-27T04:10:14.185Z,28.03
2022-10-27T04:12:53.235Z,25.93
2022-10-27T04:15:21.854Z,40.87
2022-10-27T04:17:48.911Z,49.10
2022-10-27T04:20:15.822Z,38.10
2022-10-27T04:22:42.846Z,45.87
2022-10-27T04:25:09.848Z,41.83
2022-10-27T04:27:36.848Z,45.03
2022-10-27T04:30:04.406Z,52.70
2022-10-27T04:32:31.202Z,43.87
2022-10-27T04:34:57.994Z,29.27
2022-10-27T04:37:24.985Z,33.43
2022-10-27T04:39:52.010Z,36.53
2022-10-27T04:42:18.822Z,36.53
2022-10-27T04:44:45.744Z,28.13
2022-10-27T04:47:12.515Z,25.90
2022-10-27T04:49:39.359Z,29.17
2022-10-27T04:52:06.333Z,25.57
2022-10-27T04:54:33.176Z,27.03
2022-10-27T04:57:00.000Z,27.00
2022-10-27T04:59:26.925Z,32.13
2022-10-27T05:01:53.993Z,29.93
2022-10-27T05:04:21.056Z,26.90
2022-10-27T05:06:48.077Z,29.67
2022-10-27T05:09:15.089Z,28.17
2022-10-27T05:11:41.936Z,24.53
2022-10-27T05:14:08.765Z,28.37
2022-10-27T05:16:35.929Z,30.60
2022-10-27T05:19:02.768Z,28.53
2022-10-27T05:21:29.604Z,30.13
2022-10-27T05:23:56.403Z,29.77
2022-10-27T05:26:23.275Z,24.57
2022-10-27T05:28:50.107Z,29.87
2022-10-27T05:31:17.000Z,28.23
2022-10-27T05:33:43.961Z,29.97
2022-10-27T05:36:10.947Z,28.40
2022-10-27T05:38:38.237Z,49.60
2022-10-27T05:41:07.101Z,51.53
2022-10-27T05:43:37.585Z,56.23
2022-10-27T05:46:06.360Z,36.63
2022-10-27T05:48:33.196Z,39.80
2022-10-27T05:51:00.044Z,41.37
2022-10-27T05:53:26.832Z,33.07
2022-10-27T05:55:54.804Z,28.37
2022-10-27T05:58:23.383Z,28.07
2022-10-27T06:00:50.287Z,34.50
2022-10-27T06:03:22.518Z,28.67
2022-10-27T06:05:50.221Z,35.80
2022-10-27T06:08:18.430Z,38.77
2022-10-27T06:10:46.280Z,36.67
2022-10-27T06:13:14.696Z,30.60
2022-10-27T06:15:42.223Z,33.00
2022-10-27T06:18:09.601Z,31.83
2022-10-27T06:20:36.641Z,30.60
2022-10-27T06:23:03.486Z,29.03
2022-10-27T06:25:30.494Z,30.33
2022-10-27T06:27:57.529Z,32.80
2022-10-27T06:30:24.562Z,30.20
2022-10-27T06:32:51.846Z,35.27
2022-10-27T06:35:19.721Z,31.73
2022-10-27T06:37:47.088Z,31.33
2022-10-27T06:40:16.547Z,26.60
2022-10-27T06:43:01.760Z,34.27
2022-10-27T06:45:31.140Z,26.93
2022-10-27T06:47:59.210Z,27.70
2022-10-27T06:50:26.225Z,27.93
2022-10-27T06:52:53.609Z,33.97
2022-10-27T06:55:21.041Z,29.97
2022-10-27T06:57:47.832Z,32.47
2022-10-27T07:00:15.323Z,28.80
2022-10-27T07:02:42.284Z,31.50
2022-10-27T07:05:09.597Z,29.37
2022-10-27T07:07:36.988Z,29.43
2022-10-27T07:10:06.327Z,33.37
2022-10-27T07:12:33.321Z,31.20
2022-10-27T07:15:00.505Z,32.60
2022-10-27T07:17:27.466Z,25.03
2022-10-27T07:19:54.326Z,26.43
2022-10-27T07:22:21.191Z,23.97
2022-10-27T07:24:48.005Z,27.40
2022-10-27T07:27:14.835Z,21.43
2022-10-27T07:29:41.692Z,21.47
2022-10-27T07:32:08.528Z,23.70
2022-10-27T07:34:35.388Z,20.57
2022-10-27T07:37:02.344Z,21.80
2022-10-27T07:39:29.353Z,22.37
2022-10-27T07:41:56.383Z,24.73
2022-10-27T07:44:23.422Z,18.03
2022-10-27T07:46:50.236Z,18.43
2022-10-27T07:49:17.074Z,18.02
2022-10-27T07:51:43.957Z,21.80
2022-10-27T07:54:11.106Z,17.00
2022-10-27T07:56:38.254Z,20.77
2022-10-27T07:59:05.618Z,18.80
2022-10-27T08:01:32.934Z,19.23
2022-10-27T08:03:59.775Z,19.20
2022-10-27T08:06:26.724Z,16.37
2022-10-27T08:08:53.777Z,18.63
2022-10-27T08:11:22.852Z,17.95
2022-10-27T08:13:50.373Z,16.77
2022-10-27T08:16:17.386Z,19.35
2022-10-27T08:18:44.225Z,26.73
2022-10-27T08:21:11.083Z,18.52
2022-10-27T08:23:38.614Z,22.60
2022-10-27T08:26:05.823Z,19.35
2022-10-27T08:28:32.840Z,21.13
2022-10-27T08:30:59.728Z,17.17
2022-10-27T08:33:26.516Z,16.55
2022-10-27T08:35:53.364Z,19.85
2022-10-27T08:38:20.697Z,18.58
2022-10-27T08:40:59.313Z,17.10
2022-10-27T08:43:47.747Z,18.20
2022-10-27T08:46:42.964Z,19.67
2022-10-27T08:49:48.648Z,20.58
2022-10-27T08:52:29.499Z,17.70
2022-10-27T08:55:05.072Z,16.52
2022-10-27T09:00:01.035Z,26.48
2022-10-27T09:02:33.715Z,15.95
2022-10-27T09:05:28.490Z,19.30
2022-10-27T09:08:13.826Z,25.50
2022-10-27T09:10:45.210Z,15.68
2022-10-27T09:13:50.176Z,16.65
2022-10-27T09:16:40.292Z,21.02
2022-10-27T09:19:14.513Z,16.60
2022-10-27T09:21:43.478Z,27.45
2022-10-27T09:24:17.472Z,13.88
2022-10-27T09:26:47.028Z,16.80
2022-10-27T09:29:21.990Z,17.85
2022-10-27T09:31:55.541Z,14.32
2022-10-27T09:34:37.841Z,21.20
2022-10-27T09:37:19.013Z,13.07
2022-10-27T09:39:51.336Z,16.80
2022-10-27T09:42:19.532Z,18.50
2022-10-27T09:45:00.837Z,15.52
2022-10-27T09:47:36.741Z,15.48
2022-10-27T09:50:07.994Z,12.32
2022-10-27T09:52:42.539Z,13.00
2022-10-27T09:55:10.818Z,13.70
2022-10-27T09:57:40.818Z,14.07
2022-10-27T10:00:16.834Z,17.33
2022-10-27T10:02:58.757Z,17.88
2022-10-27T10:05:28.351Z,12.63
2022-10-27T10:08:22.218Z,14.68
2022-10-27T10:10:58.328Z,13.63
2022-10-27T10:13:27.162Z,18.95
2022-10-27T10:16:06.134Z,13.75
2022-10-27T10:18:33.694Z,16.60
2022-10-27T10:21:05.897Z,19.88
2022-10-27T10:23:37.063Z,13.10
2022-10-27T10:26:14.955Z,14.52
2022-10-27T10:28:43.134Z,16.05
2022-10-27T10:31:13.900Z,13.75
2022-10-27T10:33:45.157Z,15.98
2022-10-27T10:36:20.299Z,19.17
2022-10-27T10:39:24.228Z,17.08
2022-10-27T10:42:21.168Z,15.52
2022-10-27T10:45:07.902Z,17.33
2022-10-27T10:47:34.950Z,12.63
2022-10-27T10:50:02.870Z,16.65
2022-10-27T10:52:36.744Z,16.58
2022-10-27T10:55:12.480Z,14.07
2022-10-27T10:57:43.429Z,17.20
2022-10-27T11:00:18.799Z,14.45
2022-10-27T11:02:59.328Z,13.60
2022-10-27T11:05:35.100Z,16.35
2022-10-27T11:08:06.254Z,13.02
2022-10-27T11:10:43.659Z,16.45
2022-10-27T11:13:19.865Z,14.05
2022-10-27T11:15:59.354Z,11.93
2022-10-27T11:18:31.105Z,12.48
2022-10-27T11:21:14.000Z,17.00
2022-10-27T11:23:50.778Z,16.30
2022-10-27T11:26:22.854Z,13.35
2022-10-27T11:29:04.859Z,15.48
2022-10-27T11:31:41.576Z,18.92
2022-10-27T11:34:27.612Z,12.00
2022-10-27T11:37:04.399Z,11.88
2022-10-27T11:39:38.804Z,13.65
2022-10-27T11:42:05.694Z,14.43
2022-10-27T11:44:35.227Z,17.63
2022-10-27T11:47:13.528Z,16.90
2022-10-27T11:49:50.459Z,12.00
2022-10-27T11:52:42.231Z,15.80
2022-10-27T11:58:02.561Z,12.50
2022-10-27T12:00:33.656Z,14.40
2022-10-27T12:03:15.623Z,13.50
2022-10-27T12:06:09.753Z,11.73
2022-10-27T12:09:17.442Z,14.10
2022-10-27T12:11:52.752Z,12.70
2022-10-27T12:14:47.455Z,15.95
2022-10-27T12:17:14.849Z,13.98
2022-10-27T12:19:45.794Z,18.92
2022-10-27T12:22:27.433Z,18.15
2022-10-27T12:25:13.755Z,11.35
2022-10-27T12:27:46.103Z,17.13
2022-10-27T12:30:17.150Z,12.32
2022-10-27T12:33:24.155Z,16.33
2022-10-27T12:36:30.304Z,12.80
2022-10-27T12:39:18.298Z,16.60
2022-10-27T12:42:01.058Z,12.15
2022-10-27T12:44:28.079Z,15.07
2022-10-27T12:47:02.443Z,12.10
2022-10-27T12:49:38.021Z,15.10
2022-10-27T12:52:16.939Z,17.50
2022-10-27T12:54:43.997Z,14.93
2022-10-27T12:57:35.270Z,14.77
2022-10-27T13:00:19.707Z,16.17
2022-10-27T13:03:20.402Z,16.70
2022-10-27T13:06:25.180Z,13.45
2022-10-27T13:09:28.124Z,13.65
2022-10-27T13:12:09.689Z,12.68
2022-10-27T13:15:10.576Z,17.73
2022-10-27T13:17:40.425Z,11.80
2022-10-27T13:20:22.668Z,12.90
2022-10-27T13:22:55.476Z,8.05
2022-10-27T13:25:38.758Z,11.57
2022-10-27T13:28:17.343Z,11.60
2022-10-27T13:30:51.490Z,8.13
2022-10-27T13:33:31.487Z,7.75
2022-10-27T13:36:23.576Z,12.65
2022-10-27T13:39:10.930Z,12.45
2022-10-27T13:42:05.434Z,11.70
2022-10-27T13:44:32.142Z,10.50
2022-10-27T13:47:05.572Z,10.13
2022-10-27T13:49:41.481Z,12.85
2022-10-27T13:52:17.208Z,13.27
2022-10-27T13:54:56.264Z,10.30
2022-10-27T13:57:57.152Z,12.13
2022-10-27T14:00:31.376Z,11.65
2022-10-27T14:03:33.350Z,14.30
2022-10-27T14:06:00.451Z,10.40
2022-10-27T14:08:30.482Z,18.58
2022-10-27T14:11:12.859Z,12.90
2022-10-27T14:13:45.467Z,12.90
2022-10-27T14:16:28.757Z,11.57
2022-10-27T14:19:05.518Z,15.73
2022-10-27T14:21:41.605Z,14.45
2022-10-27T14:24:33.316Z,13.32
2022-10-27T14:27:02.394Z,14.73
2022-10-27T14:29:31.458Z,12.45
2022-10-27T14:32:19.333Z,18.30
2022-10-27T14:34:47.647Z,12.65
2022-10-27T14:37:21.590Z,11.55
2022-10-27T14:39:51.503Z,15.07
2022-10-27T14:42:27.082Z,13.13
2022-10-27T14:45:02.969Z,14.48
2022-10-27T14:47:30.978Z,12.93
2022-10-27T14:50:19.816Z,19.60
2022-10-27T14:52:51.008Z,13.05
2022-10-27T14:55:38.149Z,14.80
2022-10-27T14:58:06.907Z,12.50
2022-10-27T15:00:38.484Z,17.83
2022-10-27T15:03:08.796Z,14.15
2022-10-27T15:05:46.079Z,15.93
2022-10-27T15:08:20.213Z,14.90
2022-10-27T15:10:49.890Z,13.93
2022-10-27T15:13:21.996Z,15.48
2022-10-27T15:15:50.087Z,17.05
2022-10-27T15:20:52.249Z,21.02
2022-10-27T15:23:19.983Z,18.48
2022-10-27T15:25:49.460Z,35.58
2022-10-27T15:28:17.271Z,22.85
2022-10-27T15:30:44.554Z,23.67
2022-10-27T15:33:26.376Z,28.92
2022-10-27T15:35:55.901Z,35.40
2022-10-27T15:38:27.820Z,30.20
2022-10-27T15:41:07.503Z,30.77
2022-10-27T15:43:34.813Z,29.33
2022-10-27T15:46:27.259Z,40.65
2022-10-27T15:49:03.549Z,41.88
2022-10-27T15:51:42.139Z,40.47
2022-10-27T15:56:46.542Z,38.70
2022-10-27T15:59:19.948Z,48.42
2022-10-27T16:01:49.727Z,61.45
2022-10-27T16:04:39.710Z,60.05
2022-10-27T16:07:12.429Z,53.08
2022-10-27T16:09:42.742Z,52.42
2022-10-27T16:12:14.198Z,43.97
2022-10-27T16:14:47.149Z,42.80
2022-10-27T16:17:20.939Z,38.80
2022-10-27T16:19:48.474Z,42.00
2022-10-27T16:22:20.652Z,53.50
2022-10-27T16:24:48.539Z,42.00
2022-10-27T16:27:21.260Z,35.95
2022-10-27T16:29:58.777Z,44.25
2022-10-27T16:32:30.365Z,43.28
2022-10-27T16:34:57.967Z,44.47
2022-10-27T16:37:30.328Z,39.95
2022-10-27T16:39:57.144Z,44.42
2022-10-27T16:42:25.347Z,49.17
2022-10-27T16:44:52.140Z,51.17
2022-10-27T16:47:22.591Z,50.10
2022-10-27T16:49:49.734Z,52.88
2022-10-27T16:52:16.832Z,46.97
2022-10-27T16:54:43.715Z,56.13
2022-10-27T16:57:10.713Z,44.63
2022-10-27T16:59:37.550Z,42.50
2022-10-27T17:02:04.551Z,44.87
2022-10-27T17:04:32.468Z,56.83
2022-10-27T17:06:59.193Z,51.25
2022-10-27T17:09:25.943Z,50.37
2022-10-27T17:11:52.695Z,49.53
2022-10-27T17:14:19.572Z,49.47
2022-10-27T17:16:46.295Z,53.35
2022-10-27T17:19:13.038Z,52.13
2022-10-27T17:21:39.804Z,50.87
2022-10-27T17:24:07.108Z,52.53
2022-10-27T17:26:34.059Z,54.57
2022-10-27T17:29:00.820Z,50.63
2022-10-27T17:31:28.091Z,56.00
2022-10-27T17:33:59.776Z,53.57
2022-10-27T17:36:27.118Z,54.60
2022-10-27T17:38:54.736Z,52.30
2022-10-27T17:41:21.588Z,48.60
2022-10-27T17:43:48.369Z,51.53
2022-10-27T17:46:18.068Z,48.47
2022-10-27T17:48:56.401Z,58.10
2022-10-27T17:51:31.511Z,52.33
2022-10-27T17:54:00.118Z,57.53
2022-10-27T17:56:31.729Z,50.08
2022-10-27T17:58:58.655Z,46.33
2022-10-27T18:01:28.133Z,51.53
2022-10-27T18:03:56.886Z,60.83
2022-10-27T18:06:25.963Z,52.20
2022-10-27T18:08:56.467Z,59.13
2022-10-27T18:11:25.789Z,46.33
2022-10-27T18:13:53.955Z,53.30
2022-10-27T18:16:24.279Z,45.87
2022-10-27T18:18:52.746Z,51.23
2022-10-27T18:21:20.074Z,50.70
2022-10-27T18:23:52.375Z,44.97
2022-10-27T18:26:19.296Z,47.73
2022-10-27T18:28:46.941Z,57.53
2022-10-27T18:31:15.445Z,56.63
2022-10-27T18:33:45.076Z,60.37
2022-10-27T18:36:19.906Z,64.57
2022-10-27T18:38:47.847Z,54.70
2022-10-27T18:41:16.591Z,52.93
2022-10-27T18:43:50.466Z,53.17
2022-10-27T18:46:18.567Z,54.00
2022-10-27T18:48:48.918Z,59.57
2022-10-27T18:51:16.778Z,55.70
2022-10-27T18:53:43.922Z,50.80
2022-10-27T18:56:12.459Z,50.80
2022-10-27T18:58:39.550Z,53.60
2022-10-27T19:01:14.045Z,51.80
2022-10-27T19:03:41.968Z,48.53
2022-10-27T19:06:11.547Z,46.70
2022-10-27T19:08:38.697Z,51.50
2022-10-27T19:11:14.383Z,47.73
2022-10-27T19:13:42.013Z,50.67
2022-10-27T19:16:12.762Z,51.70
2022-10-27T19:18:39.657Z,46.90
2022-10-27T19:23:36.155Z,47.27
2022-10-27T19:26:06.007Z,45.17
2022-10-27T19:28:34.429Z,49.63
2022-10-27T19:31:01.229Z,43.93
2022-10-27T19:33:28.537Z,51.73
2022-10-27T19:35:55.496Z,53.73
2022-10-27T19:38:23.982Z,46.70
2022-10-27T19:40:50.725Z,48.03
2022-10-27T19:43:17.495Z,51.40
2022-10-27T19:45:51.035Z,49.57
2022-10-27T19:48:18.430Z,46.97
2022-10-27T19:50:45.263Z,47.90
2022-10-27T19:53:12.091Z,44.53
2022-10-27T19:55:39.367Z,54.30
2022-10-27T19:58:06.121Z,44.73
2022-10-27T20:00:34.443Z,49.47
2022-10-27T20:03:02.238Z,47.20
2022-10-27T20:05:29.013Z,50.77
2022-10-27T20:07:55.787Z,46.87
2022-10-27T20:10:23.178Z,48.50
2022-10-27T20:12:50.136Z,45.80
2022-10-27T20:15:17.538Z,48.07
2022-10-27T20:17:44.327Z,47.73
2022-10-27T20:20:11.276Z,47.90
2022-10-27T20:22:38.001Z,47.10
2022-10-27T20:25:05.050Z,43.53
2022-10-27T20:27:31.888Z,48.63
2022-10-27T20:29:58.710Z,39.87
2022-10-27T20:32:25.465Z,47.83
2022-10-27T20:34:52.195Z,39.93
2022-10-27T20:37:18.948Z,42.17
2022-10-27T20:39:45.756Z,43.50
2022-10-27T20:42:12.672Z,48.50
2022-10-27T20:44:39.674Z,43.83
2022-10-27T20:47:06.393Z,51.93
2022-10-27T20:49:33.594Z,50.87
2022-10-27T20:52:00.309Z,48.17
2022-10-27T20:54:27.157Z,45.83
2022-10-27T20:56:54.704Z,49.23
2022-10-27T20:59:23.993Z,46.30
2022-10-27T21:01:54.292Z,48.00
2022-10-27T21:04:22.140Z,41.70
2022-10-27T21:06:50.887Z,42.33
2022-10-27T21:09:20.861Z,47.13
2022-10-27T21:11:48.823Z,46.90
2022-10-27T21:14:16.505Z,48.47
2022-10-27T21:16:47.134Z,50.07
2022-10-27T21:19:17.809Z,50.80
2022-10-27T21:21:45.066Z,55.23
2022-10-27T21:24:14.713Z,60.17
2022-10-27T21:26:44.286Z,60.90
2022-10-27T21:29:11.202Z,62.00
2022-10-27T21:31:38.283Z,56.50
2022-10-27T21:34:05.856Z,57.63
2022-10-27T21:36:33.552Z,53.47
2022-10-27T21:39:00.729Z,50.63
2022-10-27T21:41:27.731Z,48.30
2022-10-27T21:43:56.157Z,47.30
2022-10-27T21:46:25.383Z,39.90
2022-10-27T21:49:00.989Z,43.07
2022-10-27T21:51:29.847Z,44.63
2022-10-27T21:54:02.261Z,48.73
2022-10-27T21:56:34.185Z,47.00
2022-10-27T21:59:01.742Z,50.30
2022-10-27T22:01:29.519Z,47.97
2022-10-27T22:03:57.362Z,48.30
2022-10-27T22:06:27.666Z,47.90
2022-10-27T22:08:55.004Z,43.00
2022-10-27T22:11:26.337Z,47.33
2022-10-27T22:13:53.551Z,44.47
2022-10-27T22:16:23.568Z,40.70
2022-10-27T22:18:58.918Z,47.67
2022-10-27T22:21:28.616Z,49.70
2022-10-27T22:23:55.523Z,42.70
2022-10-27T22:26:23.378Z,40.13
2022-10-27T22:28:50.924Z,47.70
2022-10-27T22:31:20.305Z,43.93
2022-10-27T22:33:47.928Z,42.60
2022-10-27T22:36:17.141Z,42.80
2022-10-27T22:38:44.673Z,45.57
2022-10-27T22:41:16.071Z,40.40
2022-10-27T22:43:43.858Z,46.90
2022-10-27T22:46:16.812Z,44.20
2022-10-27T22:48:45.132Z,42.77
2022-10-27T22:51:14.293Z,39.37
2022-10-27T22:53:42.838Z,42.07
2022-10-27T22:56:15.774Z,43.53
2022-10-27T22:58:43.009Z,45.67
2022-10-27T23:01:13.397Z,46.60
2022-10-27T23:03:40.919Z,48.97
2022-10-27T23:06:08.651Z,46.47
2022-10-27T23:08:35.834Z,44.67
2022-10-27T23:11:05.537Z,43.77
2022-10-27T23:13:34.914Z,43.33
2022-10-27T23:16:04.476Z,45.80
2022-10-27T23:18:33.863Z,42.80
2022-10-27T23:21:02.642Z,40.63
2022-10-27T23:23:30.985Z,39.23
2022-10-27T23:25:58.476Z,48.30
2022-10-27T23:28:25.790Z,45.70
2022-10-27T23:30:53.383Z,43.60
2022-10-27T23:33:20.734Z,47.23
2022-10-27T23:36:01.669Z,46.40
2022-10-27T23:38:29.242Z,40.77
2022-10-27T23:40:57.910Z,46.63
2022-10-27T23:43:29.436Z,41.50
2022-10-27T23:46:04.098Z,42.70
2022-10-27T23:48:32.196Z,41.73
2022-10-27T23:51:00.323Z,43.13
2022-10-27T23:53:28.557Z,45.97
2022-10-27T23:55:57.317Z,46.27
2022-10-27T23:58:24.810Z,44.47
